Time;durP1;ratioP1;P1;durP2;ratioP2;P2;SDS_P1;SDS_P2;PMS_P1;PMS_P2;Temp;Humidity;BMP_temperature;BMP_pressure;BME280_temperature;BME280_humidity;BME280_pressure;Samples;Min_cycle;Max_cycle;Signal;HPM_P1;HPM_P2
2022/01/17 00:01:37;;;;;;;10.70;2.08;;;;;;;8.06;78.63;100918.41;5091842;28;20052;-61
2022/01/17 00:04:05;;;;;;;7.22;2.22;;;;;;;8.07;79.08;100909.63;5092474;28;20055;-61
2022/01/17 00:06:31;;;;;;;8.38;2.30;;;;;;;8.05;78.92;100911.44;5092376;28;20048;-61
2022/01/17 00:08:58;;;;;;;6.55;2.30;;;;;;;8.04;78.92;100914.97;5092566;28;20078;-62
2022/01/17 00:11:25;;;;;;;7.65;1.80;;;;;;;8.02;79.06;100915.00;5092257;28;20120;-60
2022/01/17 00:13:51;;;;;;;7.78;1.52;;;;;;;8.01;78.71;100917.66;5093647;28;20048;-61
2022/01/17 00:16:23;;;;;;;7.05;1.67;;;;;;;7.99;78.52;100922.13;5093649;28;20044;-63
2022/01/17 00:21:18;;;;;;;5.13;1.55;;;;;;;7.94;78.49;100957.19;5093044;28;20495;-61
2022/01/17 00:23:45;;;;;;;5.43;1.27;;;;;;;7.92;78.76;100956.34;5093718;28;20156;-62
2022/01/17 00:26:11;;;;;;;7.03;1.17;;;;;;;7.90;78.39;100947.66;5093386;28;20047;-61
2022/01/17 00:28:38;;;;;;;7.25;1.92;;;;;;;7.90;78.49;100952.91;5093451;28;20419;-60
2022/01/17 00:31:05;;;;;;;9.40;1.98;;;;;;;7.88;78.73;100959.06;5092987;28;20628;-62
2022/01/17 00:33:33;;;;;;;6.50;1.60;;;;;;;7.87;78.77;100963.47;5093176;28;20048;-61
2022/01/17 00:36:00;;;;;;;9.93;1.73;;;;;;;7.87;79.12;100968.72;5091911;28;20492;-61
2022/01/17 00:38:27;;;;;;;6.40;2.17;;;;;;;7.87;79.01;100960.84;5092891;28;20048;-63
2022/01/17 00:40:53;;;;;;;11.68;1.80;;;;;;;7.88;79.02;100953.81;5092885;28;20495;-62
2022/01/17 00:43:20;;;;;;;7.43;1.75;;;;;;;7.86;78.95;100953.91;5092998;28;20500;-61
2022/01/17 00:45:47;;;;;;;7.13;1.63;;;;;;;7.87;78.62;100953.00;5092970;28;20066;-62
2022/01/17 00:48:13;;;;;;;9.30;1.58;;;;;;;7.86;78.59;100942.53;5092618;28;20040;-61
2022/01/17 00:50:40;;;;;;;9.45;1.85;;;;;;;7.85;78.65;100954.78;5092573;28;20040;-62
2022/01/17 00:53:08;;;;;;;8.00;1.60;;;;;;;7.86;78.78;100947.78;5093143;28;20105;-63
2022/01/17 00:55:37;;;;;;;9.32;1.67;;;;;;;7.85;78.50;100953.94;5092955;28;20409;-63
2022/01/17 00:58:05;;;;;;;15.90;1.58;;;;;;;7.86;78.22;100950.41;5092815;28;20044;-60
2022/01/17 01:00:31;;;;;;;6.93;1.70;;;;;;;7.86;78.62;100950.41;5091121;28;20090;-61
2022/01/17 01:02:59;;;;;;;9.93;1.65;;;;;;;7.83;78.22;100964.47;5092390;28;20060;-62
2022/01/17 01:05:26;;;;;;;4.80;1.42;;;;;;;7.83;78.40;100967.06;5092879;28;20071;-61
2022/01/17 01:07:54;;;;;;;7.03;1.15;;;;;;;7.82;78.47;100960.97;5092635;28;20044;-62
2022/01/17 01:10:21;;;;;;;7.03;1.17;;;;;;;7.81;78.00;100958.38;5092285;28;20083;-60
2022/01/17 01:12:49;;;;;;;9.02;1.10;;;;;;;7.79;78.16;100950.56;5091828;28;20549;-64
2022/01/17 01:15:32;;;;;;;10.82;1.67;;;;;;;7.77;77.53;100941.00;5091157;28;20048;-61
2022/01/17 01:18:01;;;;;;;8.05;1.20;;;;;;;7.80;78.38;100925.22;5092647;28;20140;-60
2022/01/17 01:28:28;;;;;;;12.10;1.65;;;;;;;7.76;77.83;100949.78;5092055;28;20105;-60
2022/01/17 01:30:56;;;;;;;8.70;1.60;;;;;;;7.75;77.45;100940.19;5090773;28;20055;-61
2022/01/17 01:33:31;;;;;;;11.80;2.08;;;;;;;7.73;77.62;100945.47;5090770;28;20117;-61
2022/01/17 01:36:06;;;;;;;6.05;1.48;;;;;;;7.73;77.85;100952.50;5092006;28;20048;-60
2022/01/17 01:38:32;;;;;;;7.25;1.60;;;;;;;7.73;77.77;100949.88;5090919;28;20060;-61
2022/01/17 01:40:59;;;;;;;12.90;1.83;;;;;;;7.72;77.67;100967.34;5091722;28;20105;-61
2022/01/17 01:43:26;;;;;;;8.95;1.13;;;;;;;7.71;77.57;100965.63;5091756;28;20121;-60
2022/01/17 01:45:59;;;;;;;5.85;1.50;;;;;;;7.71;77.66;100963.03;5091570;28;20127;-61
2022/01/17 01:48:27;;;;;;;13.93;1.70;;;;;;;7.70;77.45;100974.38;5090359;28;20044;-60
2022/01/17 01:50:54;;;;;;;8.95;2.28;;;;;;;7.70;77.29;100971.75;5091199;28;20044;-63
2022/01/17 01:53:23;;;;;;;11.93;2.20;;;;;;;7.69;77.70;100965.66;5091513;28;20113;-61
2022/01/17 01:55:57;;;;;;;14.10;2.33;;;;;;;7.67;76.34;100966.63;5091618;28;20117;-61
2022/01/17 01:58:25;;;;;;;12.48;1.70;;;;;;;7.68;77.62;100963.09;5091114;28;20078;-61
2022/01/17 02:00:52;;;;;;;10.07;2.65;;;;;;;7.67;77.62;100967.47;5089707;28;20040;-62
2022/01/17 02:03:19;;;;;;;10.13;1.90;;;;;;;7.66;77.50;100976.22;5089914;28;20054;-61
2022/01/17 02:05:46;;;;;;;8.90;2.13;;;;;;;7.65;77.57;100977.13;5091424;28;20052;-61
2022/01/17 02:08:14;;;;;;;11.10;2.42;;;;;;;7.64;77.39;100971.94;5091075;28;20047;-61
2022/01/17 02:10:42;;;;;;;11.32;2.22;;;;;;;7.64;77.49;100966.69;5089653;28;20043;-61
2022/01/17 02:13:09;;;;;;;9.48;1.55;;;;;;;7.64;77.95;100972.78;5091133;28;20052;-61
2022/01/17 02:15:37;;;;;;;8.90;1.67;;;;;;;7.65;77.60;100977.13;5091283;28;20085;-62
2022/01/17 02:18:07;;;;;;;11.90;2.25;;;;;;;7.64;77.87;100983.28;5091031;28;20400;-61
2022/01/17 02:20:44;;;;;;;10.13;2.28;;;;;;;7.65;77.39;100977.13;5090864;28;20101;-61
2022/01/17 02:23:11;;;;;;;9.35;1.70;;;;;;;7.65;77.42;100984.13;5089189;28;20048;-61
2022/01/17 02:25:38;;;;;;;15.48;2.00;;;;;;;7.65;77.89;100979.75;5089479;28;20101;-61
2022/01/17 02:28:04;;;;;;;7.38;1.80;;;;;;;7.65;77.78;100985.00;5089652;28;20044;-60
2022/01/17 02:30:32;;;;;;;9.25;1.90;;;;;;;7.65;77.71;100978.88;5090758;28;20071;-62
2022/01/17 02:33:02;;;;;;;12.07;2.03;;;;;;;7.63;76.92;100955.31;5089578;28;20067;-61
2022/01/17 02:35:30;;;;;;;9.60;1.95;;;;;;;7.65;77.60;100955.28;5089513;28;20463;-62
2022/01/17 02:37:58;;;;;;;13.82;1.83;;;;;;;7.65;77.38;100948.31;5090759;28;20040;-61
2022/01/17 02:40:25;;;;;;;8.63;2.13;;;;;;;7.66;77.33;100938.66;5089110;28;20048;-61
2022/01/17 02:43:02;;;;;;;7.40;2.58;;;;;;;7.64;76.46;100949.22;5090644;28;20048;-60
2022/01/17 02:45:38;;;;;;;10.23;1.63;;;;;;;7.65;76.99;100950.94;5090805;28;20097;-60
2022/01/17 02:48:09;;;;;;;7.07;1.65;;;;;;;7.65;76.34;100950.94;5089230;28;20510;-61
2022/01/17 02:50:36;;;;;;;10.35;1.70;;;;;;;7.64;77.21;100943.97;5088922;28;20491;-65
2022/01/17 02:53:08;;;;;;;12.90;1.20;;;;;;;7.65;76.81;100948.31;5089241;28;20063;-62
2022/01/17 02:55:37;;;;;;;10.30;1.88;;;;;;;7.65;76.55;100957.91;5090742;28;20043;-62
2022/01/17 02:58:03;;;;;;;10.82;2.00;;;;;;;7.65;77.00;100961.41;5089227;28;20055;-61
2022/01/17 03:00:30;;;;;;;13.30;1.73;;;;;;;7.65;77.19;100973.63;5090265;28;20040;-62
2022/01/17 03:02:57;;;;;;;12.77;2.15;;;;;;;7.65;77.10;100985.00;5090381;28;20098;-61
2022/01/17 03:05:24;;;;;;;10.73;1.77;;;;;;;7.64;76.79;100985.91;5090398;28;20082;-61
2022/01/17 03:07:51;;;;;;;8.35;1.88;;;;;;;7.65;76.72;100982.38;5090314;28;20040;-61
2022/01/17 03:13:11;;;;;;;14.40;2.08;;;;;;;7.64;76.49;100974.53;5090148;28;20055;-62
2022/01/17 03:15:39;;;;;;;8.88;1.75;;;;;;;7.66;77.21;100978.84;5088955;28;20412;-62
2022/01/17 03:18:06;;;;;;;9.38;1.73;;;;;;;7.66;76.72;100965.75;5089012;28;20447;-61
2022/01/17 03:20:39;;;;;;;14.48;2.33;;;;;;;7.66;76.77;100967.50;5088550;28;20093;-62
2022/01/17 03:23:07;;;;;;;11.98;1.67;;;;;;;7.65;76.76;100973.63;5089061;28;20040;-61
2022/01/17 03:25:34;;;;;;;7.15;1.33;;;;;;;7.65;76.50;100985.00;5088824;28;20439;-63
2022/01/17 03:28:03;;;;;;;9.43;1.98;;;;;;;7.63;77.09;100960.56;5088770;28;20047;-61
2022/01/17 03:30:33;;;;;;;12.93;1.80;;;;;;;7.63;76.64;100942.22;5089863;28;20078;-61
2022/01/17 03:33:05;;;;;;;9.50;1.80;;;;;;;7.61;75.83;100935.31;5089998;28;20112;-62
2022/01/17 03:35:32;;;;;;;17.02;2.45;;;;;;;7.61;76.81;100928.31;5090714;28;20044;-61
2022/01/17 03:37:59;;;;;;;8.00;1.65;;;;;;;7.61;76.53;100930.06;5092995;28;20048;-61
2022/01/17 03:40:26;;;;;;;9.55;1.65;;;;;;;7.59;76.25;100926.63;5093738;28;20547;-62
2022/01/17 03:42:52;;;;;;;15.75;2.13;;;;;;;7.58;76.03;100935.41;5094020;28;20101;-61
2022/01/17 03:45:19;;;;;;;10.57;1.58;;;;;;;7.55;76.36;100955.53;5093896;28;20386;-62
2022/01/17 03:47:50;;;;;;;12.20;1.65;;;;;;;7.52;76.62;100952.13;5093899;28;20052;-62
2022/01/17 03:50:19;;;;;;;9.60;2.05;;;;;;;7.51;76.41;100960.91;5093889;28;20056;-61
2022/01/17 03:52:47;;;;;;;10.32;2.10;;;;;;;7.52;76.59;100973.09;5092667;28;20056;-62
2022/01/17 03:55:16;;;;;;;10.82;1.70;;;;;;;7.50;76.56;100969.63;5092732;28;20048;-62
2022/01/17 03:57:45;;;;;;;14.05;2.00;;;;;;;7.49;76.44;100983.66;5092621;28;20048;-61
2022/01/17 04:00:25;;;;;;;9.55;1.70;;;;;;;7.45;75.23;100961.91;5093570;28;20080;-61
2022/01/17 04:02:53;;;;;;;10.30;2.80;;;;;;;7.47;75.90;100964.50;5092540;28;20059;-60
2022/01/17 04:05:21;;;;;;;15.27;1.95;;;;;;;7.45;75.79;100951.44;5093497;28;20507;-60
2022/01/17 04:07:48;;;;;;;14.98;2.60;;;;;;;7.43;75.73;100955.81;5092297;28;20417;-61
2022/01/17 04:10:15;;;;;;;13.15;2.45;;;;;;;7.38;75.56;100950.72;5093247;28;20048;-61
2022/01/17 04:12:43;;;;;;;12.48;2.10;;;;;;;7.34;75.38;100951.69;5093598;28;20055;-61
2022/01/17 04:15:11;;;;;;;10.85;2.63;;;;;;;7.31;75.38;100967.47;5091994;28;20050;-62
2022/01/17 04:17:40;;;;;;;16.40;2.53;;;;;;;7.29;75.67;100969.28;5092264;28;20783;-62
2022/01/17 04:20:12;;;;;;;15.13;2.35;;;;;;;7.24;75.41;100966.75;5075424;28;20044;-62
2022/01/17 04:22:44;;;;;;;9.77;1.33;;;;;;;7.21;74.93;100963.38;5093469;28;20480;-61
2022/01/17 04:25:11;;;;;;;15.57;2.40;;;;;;;7.20;75.75;100972.09;5092343;28;20704;-61
2022/01/17 04:27:38;;;;;;;11.27;2.30;;;;;;;7.17;76.10;100983.50;5093693;28;20290;-62
2022/01/17 04:30:06;;;;;;;17.33;1.55;;;;;;;7.13;75.72;100993.19;5093276;28;20077;-62
2022/01/17 04:32:34;;;;;;;15.73;2.03;;;;;;;7.13;76.22;100992.31;5092163;28;20571;-61
2022/01/17 04:35:01;;;;;;;7.95;1.70;;;;;;;7.11;76.25;100999.38;5093108;28;20478;-61
2022/01/17 04:37:27;;;;;;;12.15;2.20;;;;;;;7.09;76.07;101009.88;5091856;28;20844;-61
2022/01/17 04:39:54;;;;;;;18.17;2.33;;;;;;;7.09;75.97;101025.56;5092754;28;20052;-62
2022/01/17 04:42:27;;;;;;;13.63;2.03;;;;;;;7.08;76.01;101023.88;5093014;28;20105;-61
2022/01/17 04:45:07;;;;;;;9.63;2.03;;;;;;;7.05;75.92;101016.06;5093439;28;20067;-63
2022/01/17 04:47:39;;;;;;;10.23;1.80;;;;;;;7.03;75.33;101002.16;5092087;28;20044;-61
2022/01/17 04:50:07;;;;;;;10.15;2.20;;;;;;;7.05;76.17;101000.34;5092412;28;20109;-61
2022/01/17 04:52:35;;;;;;;17.02;2.72;;;;;;;7.05;76.69;101000.34;5093000;28;20097;-61
2022/01/17 04:55:04;;;;;;;12.15;2.30;;;;;;;7.06;76.48;100996.84;5092748;28;20063;-62
2022/01/17 04:57:30;;;;;;;13.73;2.20;;;;;;;7.07;76.64;101002.94;5074865;28;20059;-63
2022/01/17 04:59:57;;;;;;;11.85;1.95;;;;;;;7.09;76.90;101012.50;5092053;28;20048;-61
2022/01/17 05:02:24;;;;;;;8.27;1.75;;;;;;;7.10;76.80;101002.88;5092360;28;20446;-61
2022/01/17 05:04:51;;;;;;;14.48;2.33;;;;;;;7.10;76.63;100993.25;5092785;28;20055;-61
2022/01/17 05:07:18;;;;;;;12.68;2.30;;;;;;;7.13;76.52;101003.66;5092832;28;20048;-61
2022/01/17 05:09:46;;;;;;;13.63;2.40;;;;;;;7.13;76.48;101008.91;5092248;28;20454;-61
2022/01/17 05:12:13;;;;;;;18.35;3.05;;;;;;;7.15;76.52;101009.72;5091331;28;20056;-62
2022/01/17 05:14:42;;;;;;;11.73;2.40;;;;;;;7.14;76.73;100994.91;5092487;28;20109;-61
2022/01/17 05:20:01;;;;;;;11.45;2.10;;;;;;;7.16;76.25;100997.50;5091982;28;20169;-61
2022/01/17 05:22:31;;;;;;;;;;;;;;;7.15;74.14;100983.53;5092837;28;20082;-61
2022/01/17 05:24:59;;;;;;;10.00;2.50;;;;;;;7.20;76.33;100999.16;5092189;28;19946;-60
2022/01/17 05:27:25;;;;;;;11.88;2.65;;;;;;;7.19;76.78;100992.19;5091932;28;20041;-61
2022/01/17 05:29:52;;;;;;;10.68;2.65;;;;;;;7.16;76.52;100982.66;5091730;28;20052;-61
2022/01/17 05:32:20;;;;;;;11.23;2.10;;;;;;;7.18;76.48;100974.78;5091979;28;20044;-61
2022/01/17 05:34:48;;;;;;;10.27;1.73;;;;;;;7.17;76.93;100984.38;5092127;28;20416;-61
2022/01/17 05:37:15;;;;;;;9.98;1.88;;;;;;;7.19;76.82;100992.19;5090818;28;20048;-62
2022/01/17 05:39:43;;;;;;;12.00;2.03;;;;;;;7.20;76.70;100982.56;5091628;28;20488;-62
2022/01/17 05:42:14;;;;;;;9.07;1.90;;;;;;;7.21;76.50;100984.31;5091537;28;20101;-63
2022/01/17 05:44:42;;;;;;;9.88;2.25;;;;;;;7.22;76.38;100965.06;5090521;28;20083;-63
2022/01/17 05:47:09;;;;;;;18.02;2.38;;;;;;;7.22;75.99;100965.06;5091521;28;20044;-61
2022/01/17 05:49:36;;;;;;;16.55;1.88;;;;;;;7.21;76.41;100953.72;5091441;28;20504;-63
2022/01/17 05:52:04;;;;;;;9.15;2.00;;;;;;;7.21;75.49;100945.03;5091441;28;20173;-61
2022/01/17 05:54:31;;;;;;;14.60;2.67;;;;;;;7.21;76.00;100953.72;5090280;28;20051;-61
2022/01/17 05:56:57;;;;;;;13.02;2.55;;;;;;;7.20;76.00;100944.16;5091703;28;20109;-61
2022/01/17 05:59:24;;;;;;;15.27;2.30;;;;;;;7.20;75.92;100943.28;5091041;28;20040;-61
2022/01/17 06:01:50;;;;;;;9.82;1.55;;;;;;;7.17;75.63;100941.59;5091315;28;20101;-60
2022/01/17 06:04:17;;;;;;;10.25;2.28;;;;;;;7.15;75.83;100939.00;5091540;28;20044;-60
2022/01/17 06:06:44;;;;;;;9.82;2.13;;;;;;;7.14;75.87;100941.69;5090126;28;20051;-63
2022/01/17 06:09:11;;;;;;;10.63;2.50;;;;;;;7.12;75.93;100928.63;5089671;28;20498;-62
2022/01/17 06:11:37;;;;;;;10.38;2.10;;;;;;;7.12;75.91;100943.47;5091508;28;20093;-61
2022/01/17 06:14:05;;;;;;;15.85;2.40;;;;;;;7.10;76.20;100933.03;5091388;28;20060;-63
2022/01/17 06:16:31;;;;;;;18.75;2.58;;;;;;;7.12;76.13;100938.25;5089873;28;20048;-61
2022/01/17 06:19:03;;;;;;;9.57;1.88;;;;;;;7.12;76.38;100936.50;5091089;28;20044;-61
2022/01/17 06:21:30;;;;;;;11.23;2.45;;;;;;;7.12;76.54;100946.97;5090612;28;20048;-61
2022/01/17 06:23:58;;;;;;;8.75;1.90;;;;;;;7.13;76.34;100940.81;5091128;28;20052;-62
2022/01/17 06:26:25;;;;;;;7.78;1.75;;;;;;;7.12;76.43;100928.63;5091104;28;20047;-63
2022/01/17 06:28:51;;;;;;;11.45;2.33;;;;;;;7.12;76.43;100931.25;5090966;28;20089;-61
2022/01/17 06:31:18;;;;;;;11.55;2.10;;;;;;;7.13;76.37;100924.25;5090482;28;20744;-62
2022/01/17 06:33:45;;;;;;;12.82;2.15;;;;;;;7.12;76.37;100920.78;5090791;28;20044;-62
2022/01/17 06:36:11;;;;;;;13.43;2.30;;;;;;;7.13;76.52;100927.72;5090739;28;20052;-61
2022/01/17 06:38:38;;;;;;;14.13;2.60;;;;;;;7.14;76.63;100918.13;5091284;28;20055;-61
2022/01/17 06:41:04;;;;;;;11.95;2.05;;;;;;;7.15;77.15;100928.53;5090436;28;20109;-61
2022/01/17 06:43:31;;;;;;;12.63;2.08;;;;;;;7.16;77.05;100938.13;5090890;28;20539;-62
2022/01/17 06:45:57;;;;;;;15.23;2.65;;;;;;;7.17;76.90;100918.91;5090758;28;20446;-61
2022/01/17 06:48:24;;;;;;;11.73;2.35;;;;;;;7.20;77.03;100922.34;5090822;28;20132;-60
2022/01/17 06:50:51;;;;;;;11.55;2.45;;;;;;;7.21;77.35;100932.78;5090324;28;20048;-62
2022/01/17 06:53:18;;;;;;;14.75;2.35;;;;;;;7.25;77.33;100965.00;5090744;28;20101;-61
2022/01/17 06:55:44;;;;;;;11.80;3.28;;;;;;;7.26;77.49;100985.06;5089501;28;20451;-60
2022/01/17 06:58:11;;;;;;;11.32;1.88;;;;;;;7.29;77.07;100992.84;5090632;28;20047;-62
2022/01/17 07:00:38;;;;;;;13.90;2.00;;;;;;;7.31;77.33;100993.66;5090338;28;20040;-61
2022/01/17 07:03:04;;;;;;;15.98;2.58;;;;;;;7.34;77.51;101003.22;5090837;28;20097;-60
2022/01/17 07:05:31;;;;;;;14.23;2.60;;;;;;;7.36;77.44;101017.16;5090555;28;20052;-61
2022/01/17 07:07:57;;;;;;;13.95;2.40;;;;;;;7.38;77.20;101044.16;5090859;28;20056;-62
2022/01/17 07:10:28;;;;;;;9.43;2.10;;;;;;;7.39;77.66;101041.50;5088807;28;20048;-61
2022/01/17 07:12:56;;;;;;;8.60;2.22;;;;;;;7.43;77.26;101031.81;5090380;28;20059;-60
2022/01/17 07:15:23;;;;;;;14.93;2.88;;;;;;;7.46;77.11;101023.00;5090518;28;20056;-63
2022/01/17 07:17:50;;;;;;;12.80;2.83;;;;;;;7.47;77.36;101006.41;5089125;28;20052;-63
2022/01/17 07:20:16;;;;;;;14.57;3.20;;;;;;;7.48;77.17;101006.34;5090400;28;20105;-61
2022/01/17 07:22:43;;;;;;;16.58;3.60;;;;;;;7.50;77.32;101006.31;5090778;28;20063;-63
2022/01/17 07:25:10;;;;;;;14.55;2.92;;;;;;;7.49;77.54;101005.47;5090427;28;20101;-62
2022/01/17 07:27:40;;;;;;;14.43;3.08;;;;;;;7.50;77.45;100996.72;5090123;28;20105;-62
2022/01/17 07:30:09;;;;;;;11.60;3.15;;;;;;;7.52;77.10;101017.63;5088795;28;20089;-62
2022/01/17 07:32:36;;;;;;;19.77;4.15;;;;;;;7.52;77.28;101030.75;5088880;28;20089;-62
2022/01/17 07:35:05;;;;;;;17.65;4.05;;;;;;;7.53;77.59;101024.59;5090474;28;20048;-61
2022/01/17 07:37:32;;;;;;;14.50;3.95;;;;;;;7.52;77.76;101020.25;5090579;28;20076;-63
2022/01/17 07:39:59;;;;;;;12.82;4.82;;;;;;;7.53;77.27;101038.56;5090267;28;20120;-62
2022/01/17 07:42:25;;;;;;;12.95;4.00;;;;;;;7.53;77.46;101030.72;5090175;28;20102;-61
2022/01/17 07:44:55;;;;;;;18.98;4.72;;;;;;;7.54;77.71;101026.31;5090050;28;20105;-62
2022/01/17 07:47:39;;;;;;;14.95;4.72;;;;;;;7.55;77.52;101022.78;5090287;28;20052;-61
2022/01/17 07:50:10;;;;;;;12.65;5.20;;;;;;;7.56;77.78;101024.53;5089943;28;20051;-62
2022/01/17 07:52:36;;;;;;;14.23;5.43;;;;;;;7.57;77.56;101026.25;5088915;28;20121;-62
2022/01/17 07:55:04;;;;;;;13.57;4.32;;;;;;;7.58;77.60;101030.59;5090145;28;20510;-61
2022/01/17 07:57:30;;;;;;;15.52;4.10;;;;;;;7.58;77.59;101035.81;5089980;28;20102;-63
2022/01/17 07:59:57;;;;;;;10.80;4.32;;;;;;;7.60;77.82;101030.56;5089879;28;20385;-62
2022/01/17 08:02:29;;;;;;;19.10;4.90;;;;;;;7.61;77.81;101032.25;5089912;28;20487;-61
2022/01/17 08:04:56;;;;;;;14.57;5.10;;;;;;;7.62;77.82;101036.63;5090156;28;20504;-62
2022/01/17 08:07:22;;;;;;;20.77;6.25;;;;;;;7.63;78.02;101043.59;5089817;28;20040;-63
2022/01/17 08:09:55;;;;;;;20.38;5.20;;;;;;;7.64;77.92;101040.06;5089684;28;20059;-62
2022/01/17 08:12:22;;;;;;;18.70;5.28;;;;;;;7.64;77.75;101040.94;5090289;28;20056;-61
2022/01/17 08:14:48;;;;;;;13.10;5.20;;;;;;;7.65;78.07;101041.78;5088522;28;20052;-61
2022/01/17 08:17:15;;;;;;;20.75;5.70;;;;;;;7.66;78.05;101044.38;5089935;28;20052;-62
2022/01/17 08:19:42;;;;;;;14.40;5.25;;;;;;;7.67;77.73;101027.72;5089655;28;20492;-61
2022/01/17 08:22:09;;;;;;;19.83;6.28;;;;;;;7.67;77.77;101037.38;5090510;28;20098;-64
2022/01/17 08:24:36;;;;;;;14.00;5.78;;;;;;;7.67;77.78;101026.88;5093536;28;20044;-62
2022/01/17 08:27:03;;;;;;;16.65;5.20;;;;;;;7.67;77.74;101035.59;5093919;28;20040;-61
2022/01/17 08:29:30;;;;;;;16.67;5.90;;;;;;;7.66;77.85;101038.25;5093465;28;20184;-62
2022/01/17 08:31:59;;;;;;;17.80;6.53;;;;;;;7.64;77.63;101033.06;5093666;28;20052;-61
2022/01/17 08:34:26;;;;;;;21.20;6.90;;;;;;;7.65;77.93;101041.78;5091943;28;20557;-61
2022/01/17 08:36:53;;;;;;;16.40;5.82;;;;;;;7.64;78.03;101038.31;5092974;28;20514;-63
2022/01/17 08:39:20;;;;;;;12.32;5.50;;;;;;;7.64;78.16;101056.66;5091566;28;20549;-61
2022/01/17 08:41:47;;;;;;;18.50;5.95;;;;;;;7.64;78.46;101046.19;5091617;28;20105;-61
2022/01/17 08:44:14;;;;;;;18.30;5.30;;;;;;;7.66;78.61;101046.97;5074928;28;20109;-62
2022/01/17 08:46:41;;;;;;;15.30;6.07;;;;;;;7.66;78.30;101041.75;5090737;28;20044;-61
2022/01/17 08:49:08;;;;;;;15.50;5.97;;;;;;;7.66;78.35;101052.22;5092625;28;20048;-62
2022/01/17 08:51:35;;;;;;;18.77;5.85;;;;;;;7.66;78.72;101051.34;5092778;28;20121;-59
2022/01/17 08:54:02;;;;;;;14.70;6.00;;;;;;;7.67;78.79;101061.81;5092633;28;20052;-61
2022/01/17 08:56:30;;;;;;;17.50;6.28;;;;;;;7.68;78.56;101060.06;5092582;28;20067;-61
2022/01/17 08:58:58;;;;;;;20.45;5.65;;;;;;;7.68;78.47;101067.91;5092847;28;20043;-60
2022/01/17 09:01:25;;;;;;;15.27;5.53;;;;;;;7.70;78.81;101058.25;5091232;28;20047;-61
2022/01/17 09:03:53;;;;;;;18.35;5.60;;;;;;;7.73;78.93;101057.34;5074741;28;20135;-61
2022/01/17 09:06:20;;;;;;;15.70;6.38;;;;;;;7.74;79.06;101067.75;5091645;28;20049;-61
2022/01/17 09:08:46;;;;;;;15.10;5.68;;;;;;;7.77;78.76;101066.81;5091655;28;20056;-61
2022/01/17 09:11:13;;;;;;;16.88;5.45;;;;;;;7.79;78.85;101078.16;5091435;28;20094;-60
2022/01/17 09:13:40;;;;;;;12.25;5.68;;;;;;;7.81;79.12;101076.34;5091966;28;20051;-62
2022/01/17 09:16:08;;;;;;;14.88;5.25;;;;;;;7.82;78.71;101067.59;5092708;28;20048;-61
2022/01/17 09:18:35;;;;;;;14.45;5.20;;;;;;;7.83;78.99;101066.69;5092565;28;20500;-62
2022/01/17 09:21:02;;;;;;;13.73;5.20;;;;;;;7.84;78.94;101067.56;5091064;28;20059;-62
2022/01/17 09:23:29;;;;;;;12.32;5.15;;;;;;;7.85;78.80;101056.16;5091328;28;20059;-61
2022/01/17 09:25:56;;;;;;;10.77;4.88;;;;;;;7.86;79.31;101060.50;5092206;28;20052;-61
2022/01/17 09:28:23;;;;;;;17.67;5.20;;;;;;;7.87;79.21;101051.75;5092041;28;20056;-61
2022/01/17 09:30:51;;;;;;;10.57;4.88;;;;;;;7.88;79.04;101064.81;5091989;28;20131;-62
2022/01/17 09:33:18;;;;;;;13.25;4.68;;;;;;;7.89;78.86;101069.16;5090445;28;20075;-61
2022/01/17 09:35:45;;;;;;;9.85;5.30;;;;;;;7.91;79.34;101074.34;5092044;28;20044;-61
2022/01/17 09:38:11;;;;;;;12.85;4.07;;;;;;;7.92;79.04;101086.56;5092003;28;20644;-61
2022/01/17 09:40:38;;;;;;;9.80;4.63;;;;;;;7.93;79.34;101085.69;5091753;28;20044;-60
2022/01/17 09:43:25;;;;;;;11.38;4.85;;;;;;;7.94;79.49;101097.88;5091593;28;20134;-61
2022/01/17 09:45:52;;;;;;;12.35;5.10;;;;;;;7.95;79.47;101092.63;5089907;28;20056;-61
2022/01/17 09:48:22;;;;;;;14.70;5.50;;;;;;;7.97;79.37;101099.56;5089092;28;20071;-61
2022/01/17 09:51:04;;;;;;;16.02;4.85;;;;;;;7.98;79.44;101107.41;5089694;28;20446;-61
2022/01/17 09:53:38;;;;;;;14.25;5.07;;;;;;;8.00;79.50;101123.09;5091798;28;20446;-60
2022/01/17 09:56:07;;;;;;;23.67;5.70;;;;;;;8.01;79.33;101109.09;5091627;28;20047;-61
2022/01/17 09:58:39;;;;;;;15.95;4.65;;;;;;;8.02;79.21;101105.56;5090132;28;20492;-61
2022/01/17 10:01:07;;;;;;;15.97;4.93;;;;;;;8.05;79.60;101102.88;5090196;28;20101;-61
2022/01/17 10:03:38;;;;;;;15.07;5.60;;;;;;;8.07;79.80;101099.31;5090734;28;20060;-62
2022/01/17 10:06:05;;;;;;;19.63;5.43;;;;;;;8.11;79.69;101112.34;5090413;28;20056;-61
2022/01/17 10:08:31;;;;;;;14.90;4.93;;;;;;;8.12;79.66;101112.31;5091197;28;20048;-60
2022/01/17 10:11:01;;;;;;;15.13;4.88;;;;;;;8.14;79.96;101102.63;5091044;28;20514;-61
2022/01/17 10:13:32;;;;;;;17.70;4.88;;;;;;;8.16;79.69;101099.97;5091462;28;20044;-61
2022/01/17 10:16:01;;;;;;;15.82;4.32;;;;;;;8.20;79.88;101104.25;5091158;28;20101;-62
2022/01/17 10:18:30;;;;;;;13.50;4.75;;;;;;;8.24;79.91;101107.66;5089957;28;20163;-61
2022/01/17 10:21:03;;;;;;;19.00;5.70;;;;;;;8.26;79.69;101106.69;5090972;28;20093;-61
2022/01/17 10:26:16;;;;;;;17.67;5.07;;;;;;;8.30;79.54;101110.97;5091320;28;20543;-61
2022/01/17 10:29:03;;;;;;;19.17;4.60;;;;;;;8.32;79.66;101126.69;5091122;28;20052;-61
2022/01/17 10:37:13;;;;;;;12.20;4.23;;;;;;;8.42;79.52;101141.31;5091024;28;20052;-60
2022/01/17 10:40:15;;;;;;;19.45;4.38;;;;;;;8.42;78.96;101128.19;5089396;28;20294;-60
2022/01/17 10:42:47;;;;;;;23.15;4.40;;;;;;;8.46;79.62;101121.94;5079607;28;20156;-62
2022/01/17 10:45:19;;;;;;;21.13;4.72;;;;;;;8.48;79.82;101121.88;5090169;28;20108;-61
2022/01/17 10:47:47;;;;;;;19.58;4.65;;;;;;;8.52;79.82;101128.78;5089467;28;20052;-60
2022/01/17 10:50:42;;;;;;;21.08;4.97;;;;;;;8.51;79.23;101126.19;5089074;28;20051;-60
2022/01/17 10:53:11;;;;;;;19.50;5.20;;;;;;;8.56;80.03;101130.47;5087063;28;20052;-61
2022/01/17 10:55:45;;;;;;;20.25;4.43;;;;;;;8.56;79.45;101119.97;5089481;28;20051;-62
2022/01/17 10:58:17;;;;;;;26.38;4.40;;;;;;;8.62;79.93;101132.06;5089393;28;20097;-61
2022/01/17 11:00:46;;;;;;;27.85;4.40;;;;;;;8.65;79.67;101128.50;5090266;28;20052;-60
2022/01/17 11:03:15;;;;;;;22.10;4.22;;;;;;;8.67;80.25;101122.28;5089437;28;20044;-60
2022/01/17 11:05:46;;;;;;;23.38;4.85;;;;;;;8.69;79.87;101131.00;5090694;28;20048;-60
2022/01/17 11:08:17;;;;;;;26.40;4.38;;;;;;;8.71;79.72;101149.34;5090636;28;20073;-61
2022/01/17 11:10:46;;;;;;;26.15;4.80;;;;;;;8.76;80.02;101146.59;5088978;28;20040;-60
2022/01/17 11:13:15;;;;;;;22.58;4.25;;;;;;;8.78;80.03;101161.38;5089165;28;20444;-60
2022/01/17 11:15:47;;;;;;;32.58;4.90;;;;;;;8.82;80.22;101162.19;5089144;28;20056;-62
2022/01/17 11:18:19;;;;;;;18.52;3.67;;;;;;;8.86;80.13;101156.78;5090445;28;20051;-60
2022/01/17 11:20:48;;;;;;;17.55;2.92;;;;;;;8.90;79.76;101173.31;5088955;28;20655;-61
2022/01/17 11:23:15;;;;;;;20.88;4.38;;;;;;;8.94;79.89;101168.88;5089131;28;20051;-61
2022/01/17 11:25:44;;;;;;;22.83;3.75;;;;;;;8.95;79.96;101150.44;5090155;28;20105;-61
2022/01/17 11:28:14;;;;;;;22.95;4.93;;;;;;;8.99;79.76;101135.44;5089127;28;20048;-61
2022/01/17 11:30:41;;;;;;;18.33;4.00;;;;;;;9.02;79.83;101137.13;5090183;28;20048;-61
2022/01/17 11:33:09;;;;;;;19.35;3.55;;;;;;;9.04;80.10;101127.44;5090363;28;20088;-60
2022/01/17 11:35:41;;;;;;;30.25;4.82;;;;;;;9.06;79.82;101136.13;5090515;28;20048;-61
2022/01/17 11:38:19;;;;;;;27.77;5.22;;;;;;;9.07;79.43;101141.34;5090530;28;20051;-61
2022/01/17 11:40:46;;;;;;;25.73;4.35;;;;;;;9.12;80.07;101133.31;5089787;28;20454;-61
2022/01/17 11:43:19;;;;;;;28.65;4.70;;;;;;;9.14;79.69;101134.16;5090333;28;20044;-60
2022/01/17 11:45:48;;;;;;;29.00;5.47;;;;;;;9.21;80.36;101129.59;5088861;28;20044;-61
2022/01/17 11:48:18;;;;;;;25.42;4.32;;;;;;;9.22;80.08;101124.28;5090420;28;20048;-61
2022/01/17 11:50:48;;;;;;;21.50;4.43;;;;;;;9.29;80.39;101151.25;5089786;28;20101;-62
2022/01/17 11:53:14;;;;;;;21.63;3.78;;;;;;;9.36;80.81;101149.28;5089198;28;20146;-61
2022/01/17 11:55:44;;;;;;;20.85;4.13;;;;;;;9.42;80.77;101150.88;5090736;28;20044;-61
2022/01/17 11:58:24;;;;;;;25.30;4.45;;;;;;;9.46;79.71;101150.72;5092684;28;20480;-61